Time;durP1;ratioP1;P1;durP2;ratioP2;P2;SDS_P1;SDS_P2;PMS_P1;PMS_P2;Temp;Humidity;BMP_temperature;BMP_pressure;BME280_temperature;BME280_humidity;BME280_pressure;Samples;Min_cycle;Max_cycle;Signal;HPM_P1;HPM_P2
2021/12/26 00:01:35;;;;;;;;;;;-5.40;99.90;;;;;;6064806;23;19925;-82
2021/12/26 00:04:03;;;;;;;;;;;-5.60;99.90;;;;;;6086764;23;19925;-82
2021/12/26 00:06:28;;;;;;;;;;;-6.00;99.90;;;;;;6086786;23;19925;-80
2021/12/26 00:08:55;;;;;;;;;;;-6.20;99.90;;;;;;6062133;23;19921;-80
2021/12/26 00:11:25;;;;;;;;;;;-6.20;99.90;;;;;;6088975;23;20009;-81
2021/12/26 00:13:53;;;;;;;;;;;-6.20;99.90;;;;;;6114811;23;20103;-81
2021/12/26 00:16:19;;;;;;;;;;;-6.20;99.90;;;;;;6115730;23;19924;-80
2021/12/26 00:18:46;;;;;;;;;;;-6.20;99.90;;;;;;6093358;23;19936;-81
2021/12/26 00:21:17;;;;;;;;;;;-6.30;99.90;;;;;;6116647;23;19925;-80
2021/12/26 00:23:43;;;;;;;;;;;-6.30;99.90;;;;;;6115417;23;19921;-81
2021/12/26 00:26:08;;;;;;;;;;;-6.00;99.90;;;;;;6117411;23;19990;-80
2021/12/26 00:28:34;;;;;;;;;;;-6.30;99.90;;;;;;6118241;23;20008;-81
2021/12/26 00:31:00;;;;;;;;;;;-6.30;99.90;;;;;;6090934;23;19956;-80
2021/12/26 00:33:26;;;;;;;;;;;-6.30;99.90;;;;;;6091898;23;19960;-80
2021/12/26 00:35:51;;;;;;;;;;;-6.40;99.90;;;;;;6115947;23;19964;-80
2021/12/26 00:38:17;;;;;;;;;;;-6.40;99.90;;;;;;6115680;23;19921;-81
2021/12/26 00:40:43;;;;;;;;;;;-6.40;99.90;;;;;;6116129;23;19920;-81
2021/12/26 00:43:09;;;;;;;;;;;-6.30;99.90;;;;;;6116201;23;20298;-81
2021/12/26 00:45:34;;;;;;;;;;;-6.40;99.90;;;;;;6116345;23;19940;-81
2021/12/26 00:48:00;;;;;;;;;;;-6.40;99.90;;;;;;6119152;23;20330;-80
2021/12/26 00:50:29;;;;;;;;;;;-6.40;99.90;;;;;;6116470;23;20007;-80
2021/12/26 00:52:55;;;;;;;;;;;-6.50;99.90;;;;;;6114585;23;19931;-80
2021/12/26 00:55:21;;;;;;;;;;;-6.50;99.90;;;;;;6115045;23;19928;-80
2021/12/26 00:57:47;;;;;;;;;;;-6.40;99.90;;;;;;6115806;23;19925;-80
2021/12/26 01:00:16;;;;;;;;;;;-6.40;99.90;;;;;;6116173;23;19943;-80
2021/12/26 01:02:42;;;;;;;;;;;-6.50;99.90;;;;;;6117075;23;19951;-80
2021/12/26 01:05:07;;;;;;;;;;;-6.50;99.90;;;;;;6091864;23;19924;-80
2021/12/26 01:08:08;;;;;;;;;;;-6.50;99.90;;;;;;6113643;23;19932;-81
2021/12/26 01:10:29;;;;;;;;;;;-6.50;99.90;;;;;;6090427;23;19925;-80
2021/12/26 01:12:55;;;;;;;;;;;-6.50;99.90;;;;;;6092135;23;20036;-80
2021/12/26 01:15:23;;;;;;;;;;;-6.50;99.90;;;;;;6115057;23;19921;-80
2021/12/26 01:17:55;;;;;;;;;;;-6.50;99.90;;;;;;6091685;23;19939;-80
2021/12/26 01:20:46;;;;;;;;;;;-6.50;99.90;;;;;;6115131;23;20702;-80
2021/12/26 01:23:12;;;;;;;;;;;-7.20;99.90;;;;;;6089499;23;19928;-79
2021/12/26 01:25:38;;;;;;;;;;;-6.40;99.90;;;;;;6116394;23;19921;-80
2021/12/26 01:28:04;;;;;;;;;;;-6.40;99.90;;;;;;6090662;23;20169;-80
2021/12/26 01:30:30;;;;;;;;;;;-6.40;99.90;;;;;;6116805;23;19935;-80
2021/12/26 01:32:57;;;;;;;;;;;-6.40;99.90;;;;;;6116372;23;19925;-81
2021/12/26 01:35:23;;;;;;;;;;;-6.30;99.90;;;;;;6115191;23;19975;-80
2021/12/26 01:37:48;;;;;;;;;;;-6.30;99.90;;;;;;6114829;23;19925;-79
2021/12/26 01:40:15;;;;;;;;;;;-6.10;99.90;;;;;;6116951;23;19928;-80
2021/12/26 01:42:41;;;;;;;;;;;-6.30;99.90;;;;;;6114338;23;19929;-80
2021/12/26 01:45:07;;;;;;;;;;;-5.80;99.90;;;;;;6116206;23;19988;-80
2021/12/26 01:47:33;;;;;;;;;;;-6.40;99.90;;;;;;6090474;23;20091;-79
2021/12/26 01:49:58;;;;;;;;;;;-6.40;99.90;;;;;;6092097;23;20401;-80
2021/12/26 01:52:24;;;;;;;;;;;-6.40;99.90;;;;;;6088111;23;20348;-80
2021/12/26 01:55:00;;;;;;;;;;;-6.40;99.90;;;;;;6115715;23;19920;-79
2021/12/26 01:57:26;;;;;;;;;;;-6.50;99.90;;;;;;6116173;23;20024;-81
2021/12/26 01:59:52;;;;;;;;;;;-6.00;99.90;;;;;;6116157;23;19923;-81
2021/12/26 02:02:17;;;;;;;;;;;-6.50;99.90;;;;;;6115554;23;20011;-81
2021/12/26 02:04:44;;;;;;;;;;;-6.60;99.90;;;;;;6114728;23;19935;-80
2021/12/26 02:07:10;;;;;;;;;;;-6.50;99.90;;;;;;6089951;23;19992;-82
2021/12/26 02:09:37;;;;;;;;;;;-6.50;99.90;;;;;;6116022;23;19996;-80
2021/12/26 02:12:03;;;;;;;;;;;-6.50;99.90;;;;;;6091083;23;19921;-80
2021/12/26 02:14:29;;;;;;;;;;;-6.90;99.90;;;;;;6116019;23;19932;-80
2021/12/26 02:16:54;;;;;;;;;;;-6.50;99.90;;;;;;6092030;23;19921;-80
2021/12/26 02:19:20;;;;;;;;;;;-6.60;99.90;;;;;;6114328;23;19928;-80
2021/12/26 02:24:20;;;;;;;;;;;-6.60;99.90;;;;;;6090888;23;19928;-80
2021/12/26 02:29:30;;;;;;;;;;;-6.70;99.90;;;;;;6091384;23;20937;-80
2021/12/26 02:31:56;;;;;;;;;;;-6.70;99.90;;;;;;6115608;23;19964;-81
2021/12/26 02:34:21;;;;;;;;;;;-6.70;99.90;;;;;;6116141;23;19995;-80
2021/12/26 02:36:47;;;;;;;;;;;-6.30;99.90;;;;;;6066539;23;19963;-80
2021/12/26 02:39:15;;;;;;;;;;;-6.70;99.90;;;;;;6089248;23;19921;-79
2021/12/26 02:41:40;;;;;;;;;;;-6.30;99.90;;;;;;6115213;23;19925;-80
2021/12/26 02:44:06;;;;;;;;;;;-6.70;99.90;;;;;;6115645;23;19984;-80
2021/12/26 02:46:31;;;;;;;;;;;-5.60;99.90;;;;;;6089667;23;19924;-80
2021/12/26 02:48:58;;;;;;;;;;;-6.70;99.90;;;;;;6090597;23;19924;-81
2021/12/26 02:51:24;;;;;;;;;;;-6.70;99.90;;;;;;6112603;23;20299;-80
2021/12/26 02:53:49;;;;;;;;;;;-6.70;99.90;;;;;;6112949;23;19961;-80
2021/12/26 02:56:15;;;;;;;;;;;-6.60;99.90;;;;;;6114297;23;19956;-80
2021/12/26 02:58:41;;;;;;;;;;;-6.60;99.90;;;;;;6115877;23;19925;-80
2021/12/26 03:01:11;;;;;;;;;;;-6.60;99.90;;;;;;6114623;23;20027;-82
2021/12/26 03:03:38;;;;;;;;;;;-6.50;99.90;;;;;;6115526;23;19950;-80
2021/12/26 03:06:08;;;;;;;;;;;-6.50;99.90;;;;;;6114688;23;19952;-80
2021/12/26 03:08:34;;;;;;;;;;;-6.50;99.90;;;;;;6113469;23;19995;-80
2021/12/26 03:11:00;;;;;;;;;;;-6.50;99.90;;;;;;6090632;23;19963;-80
2021/12/26 03:13:26;;;;;;;;;;;-6.40;99.90;;;;;;6113918;23;20191;-81
2021/12/26 03:15:52;;;;;;;;;;;-6.40;99.90;;;;;;6114855;23;20322;-80
2021/12/26 03:18:17;;;;;;;;;;;-6.40;99.90;;;;;;6091736;23;19925;-79
2021/12/26 03:20:44;;;;;;;;;;;-6.40;99.90;;;;;;6117827;23;19928;-81
2021/12/26 03:23:11;;;;;;;;;;;-6.20;99.90;;;;;;6112507;23;19924;-79
2021/12/26 03:25:37;;;;;;;;;;;-6.40;99.90;;;;;;6115708;23;20246;-79
2021/12/26 03:28:04;;;;;;;;;;;-6.40;99.90;;;;;;6113730;23;19949;-80
2021/12/26 03:30:30;;;;;;;;;;;-6.30;99.90;;;;;;6115708;23;19932;-79
2021/12/26 03:32:57;;;;;;;;;;;-6.00;99.90;;;;;;6090845;23;19929;-79
2021/12/26 03:35:24;;;;;;;;;;;-6.40;99.70;;;;;;6113416;23;20330;-80
2021/12/26 03:37:50;;;;;;;;;;;-6.00;99.90;;;;;;6114278;23;19923;-80
2021/12/26 03:40:15;;;;;;;;;;;-6.40;99.80;;;;;;6090873;23;19936;-79
2021/12/26 03:42:41;;;;;;;;;;;-6.40;99.90;;;;;;6113686;23;20260;-80
2021/12/26 03:45:07;;;;;;;;;;;-5.80;99.90;;;;;;6114882;23;19977;-80
2021/12/26 03:47:34;;;;;;;;;;;-6.40;99.60;;;;;;6114613;23;19931;-80
2021/12/26 03:49:59;;;;;;;;;;;-6.50;99.70;;;;;;6090232;23;20123;-79
2021/12/26 03:52:25;;;;;;;;;;;-6.40;99.10;;;;;;6113956;23;19932;-82
2021/12/26 03:54:51;;;;;;;;;;;-6.50;99.10;;;;;;6090677;23;19933;-79
2021/12/26 03:57:17;;;;;;;;;;;-6.50;99.60;;;;;;6113325;23;19992;-80
2021/12/26 03:59:43;;;;;;;;;;;-6.20;99.40;;;;;;6115527;23;19956;-82
2021/12/26 04:02:08;;;;;;;;;;;-6.40;99.40;;;;;;6114461;23;19921;-79
2021/12/26 04:04:34;;;;;;;;;;;-6.50;99.30;;;;;;6113722;23;19933;-82
2021/12/26 04:06:59;;;;;;;;;;;-6.20;99.90;;;;;;6115415;23;19943;-82
2021/12/26 04:09:25;;;;;;;;;;;-6.20;99.70;;;;;;6115985;23;19937;-82
2021/12/26 04:11:50;;;;;;;;;;;-6.50;99.90;;;;;;6091034;23;19920;-82
2021/12/26 04:14:16;;;;;;;;;;;-6.60;99.90;;;;;;6120174;23;19987;-79
2021/12/26 04:16:41;;;;;;;;;;;-6.60;99.90;;;;;;6095940;23;20307;-80
2021/12/26 04:19:07;;;;;;;;;;;-6.60;99.90;;;;;;6092528;23;19980;-80
2021/12/26 04:21:32;;;;;;;;;;;-6.60;99.90;;;;;;6115355;23;20325;-80
2021/12/26 04:23:58;;;;;;;;;;;-6.60;99.90;;;;;;6092373;23;19921;-80
2021/12/26 04:26:27;;;;;;;;;;;-6.60;99.90;;;;;;6115034;23;19990;-80
2021/12/26 04:28:53;;;;;;;;;;;-6.60;99.30;;;;;;6117768;23;19992;-80
2021/12/26 04:31:18;;;;;;;;;;;-6.60;99.50;;;;;;6119524;23;19921;-81
2021/12/26 04:33:45;;;;;;;;;;;-6.60;99.70;;;;;;6116784;23;20558;-81
2021/12/26 04:36:10;;;;;;;;;;;-6.60;99.10;;;;;;6115144;23;20172;-80
2021/12/26 04:38:36;;;;;;;;;;;-6.60;99.60;;;;;;6115953;23;19921;-80
2021/12/26 04:41:04;;;;;;;;;;;-6.60;99.00;;;;;;6119473;23;19921;-80
2021/12/26 04:43:29;;;;;;;;;;;-6.60;99.20;;;;;;6091424;23;20020;-80
2021/12/26 04:45:55;;;;;;;;;;;-6.60;98.60;;;;;;6115950;23;19932;-80
2021/12/26 04:48:21;;;;;;;;;;;-6.60;98.90;;;;;;6091884;23;20611;-80
2021/12/26 04:50:46;;;;;;;;;;;-6.60;98.50;;;;;;6116295;23;19921;-80
2021/12/26 04:53:12;;;;;;;;;;;-6.90;98.30;;;;;;6113417;23;20401;-83
2021/12/26 04:55:38;;;;;;;;;;;-6.60;98.20;;;;;;6115238;23;19924;-80
2021/12/26 04:58:03;;;;;;;;;;;-6.60;97.90;;;;;;6114960;23;19928;-81
2021/12/26 05:00:30;;;;;;;;;;;-6.60;98.10;;;;;;6115383;23;20625;-80
2021/12/26 05:02:56;;;;;;;;;;;-6.60;96.70;;;;;;6116508;23;20333;-81
2021/12/26 05:05:22;;;;;;;;;;;-6.60;96.60;;;;;;6115146;23;19921;-81
2021/12/26 05:07:48;;;;;;;;;;;-6.60;97.00;;;;;;6115411;23;19921;-80
2021/12/26 05:10:15;;;;;;;;;;;-6.60;96.30;;;;;;6091059;23;19988;-79
2021/12/26 05:12:41;;;;;;;;;;;-6.60;96.00;;;;;;6116067;23;19925;-81
2021/12/26 05:15:07;;;;;;;;;;;-6.60;96.40;;;;;;6090998;23;19967;-80
2021/12/26 05:17:33;;;;;;;;;;;-6.50;95.40;;;;;;6115989;23;19987;-79
2021/12/26 05:19:59;;;;;;;;;;;-6.50;94.60;;;;;;6114461;23;19925;-81
2021/12/26 05:22:24;;;;;;;;;;;-6.50;94.80;;;;;;6115307;23;19991;-81
2021/12/26 05:24:50;;;;;;;;;;;-6.50;95.80;;;;;;6118624;23;19925;-80
2021/12/26 05:27:16;;;;;;;;;;;-6.50;94.20;;;;;;6091601;23;19929;-81
2021/12/26 05:29:44;;;;;;;;;;;-6.40;94.70;;;;;;6117461;23;20587;-80
2021/12/26 05:32:10;;;;;;;;;;;-6.40;95.10;;;;;;6116020;23;19952;-81
2021/12/26 05:34:38;;;;;;;;;;;-6.40;94.50;;;;;;6116780;23;19964;-81
2021/12/26 05:37:03;;;;;;;;;;;-6.40;95.10;;;;;;6115370;23;19947;-80
2021/12/26 05:39:29;;;;;;;;;;;-6.40;95.80;;;;;;6091547;23;20417;-81
2021/12/26 05:41:54;;;;;;;;;;;-6.40;95.80;;;;;;6089387;23;20381;-82
2021/12/26 05:44:20;;;;;;;;;;;-6.40;96.40;;;;;;6117813;23;19921;-80
2021/12/26 05:46:45;;;;;;;;;;;-6.10;96.20;;;;;;6117262;23;19932;-84
2021/12/26 05:49:12;;;;;;;;;;;-6.40;95.80;;;;;;6090481;23;19952;-81
2021/12/26 05:51:39;;;;;;;;;;;-6.40;96.40;;;;;;6115278;23;19925;-81
2021/12/26 05:54:05;;;;;;;;;;;-6.50;96.70;;;;;;6114632;23;20320;-81
2021/12/26 05:56:31;;;;;;;;;;;-6.50;96.60;;;;;;6089584;23;19980;-82
2021/12/26 05:58:56;;;;;;;;;;;-6.00;96.50;;;;;;6091807;23;20353;-80
2021/12/26 06:01:22;;;;;;;;;;;-6.50;96.30;;;;;;6114896;23;19996;-80
2021/12/26 06:03:47;;;;;;;;;;;-6.10;95.90;;;;;;6090999;23;19932;-81
2021/12/26 06:06:13;;;;;;;;;;;-6.50;95.90;;;;;;6089890;23;19925;-79
2021/12/26 06:08:38;;;;;;;;;;;-4.90;95.60;;;;;;6092048;23;19995;-80
2021/12/26 06:11:04;;;;;;;;;;;-6.00;95.60;;;;;;6116479;23;19940;-80
2021/12/26 06:13:31;;;;;;;;;;;-6.50;95.20;;;;;;6113074;23;19925;-80
2021/12/26 06:15:57;;;;;;;;;;;-6.50;95.70;;;;;;6115671;23;20203;-81
2021/12/26 06:18:22;;;;;;;;;;;-6.50;96.00;;;;;;6114512;23;19931;-82
2021/12/26 06:20:48;;;;;;;;;;;-6.50;95.10;;;;;;6089048;23;19949;-80
2021/12/26 06:23:14;;;;;;;;;;;-6.50;95.50;;;;;;6113386;23;19960;-80
2021/12/26 06:25:39;;;;;;;;;;;-6.20;95.50;;;;;;6113742;23;20179;-81
2021/12/26 06:28:05;;;;;;;;;;;-6.50;95.20;;;;;;6114305;23;19929;-79
2021/12/26 06:30:31;;;;;;;;;;;-6.60;95.10;;;;;;6112503;23;19963;-79
2021/12/26 06:32:56;;;;;;;;;;;-6.50;95.20;;;;;;6089868;23;19928;-79
2021/12/26 06:35:22;;;;;;;;;;;-5.50;96.20;;;;;;6114502;23;19932;-80
2021/12/26 06:37:47;;;;;;;;;;;-6.60;95.80;;;;;;6113546;23;19943;-80
2021/12/26 06:40:13;;;;;;;;;;;-6.60;96.10;;;;;;6113728;23;19921;-80
2021/12/26 06:42:42;;;;;;;;;;;-6.20;96.30;;;;;;6115012;23;20004;-80
2021/12/26 06:45:09;;;;;;;;;;;-6.60;96.30;;;;;;6114585;23;19947;-83
2021/12/26 06:47:35;;;;;;;;;;;-6.60;96.80;;;;;;6115001;23;20003;-82
2021/12/26 06:50:00;;;;;;;;;;;-5.10;97.30;;;;;;6115808;23;19925;-83
2021/12/26 06:52:26;;;;;;;;;;;-6.60;96.70;;;;;;6113717;23;19928;-80
2021/12/26 06:54:51;;;;;;;;;;;-6.70;97.00;;;;;;6114371;23;19929;-82
2021/12/26 06:57:17;;;;;;;;;;;-6.70;97.40;;;;;;6114201;23;20326;-83
2021/12/26 06:59:42;;;;;;;;;;;-6.60;97.30;;;;;;6114840;23;19921;-82
2021/12/26 07:02:11;;;;;;;;;;;-6.60;96.90;;;;;;6091621;23;19925;-79
2021/12/26 07:04:36;;;;;;;;;;;-5.00;97.20;;;;;;6115152;23;19982;-79
2021/12/26 07:07:02;;;;;;;;;;;-6.80;96.90;;;;;;6088374;23;19921;-80
2021/12/26 07:09:27;;;;;;;;;;;-6.70;96.50;;;;;;6115347;23;20004;-81
2021/12/26 07:11:53;;;;;;;;;;;-6.20;96.50;;;;;;6114624;23;19924;-80
2021/12/26 07:14:18;;;;;;;;;;;-5.00;97.30;;;;;;6090272;23;19977;-80
2021/12/26 07:16:44;;;;;;;;;;;-6.70;97.50;;;;;;6117890;23;19952;-81
2021/12/26 07:19:09;;;;;;;;;;;-6.80;97.70;;;;;;6117676;23;20013;-80
2021/12/26 07:21:35;;;;;;;;;;;-6.80;96.50;;;;;;6113496;23;20520;-81
2021/12/26 07:24:00;;;;;;;;;;;-6.80;97.00;;;;;;6116578;23;19976;-80
2021/12/26 07:26:26;;;;;;;;;;;-6.80;97.40;;;;;;6089207;23;19972;-80
2021/12/26 07:28:51;;;;;;;;;;;-6.80;97.30;;;;;;6114561;23;20329;-80
2021/12/26 07:31:17;;;;;;;;;;;-6.80;97.20;;;;;;6090010;23;19968;-80
2021/12/26 07:33:42;;;;;;;;;;;-6.80;96.40;;;;;;6113481;23;19928;-81
2021/12/26 07:36:08;;;;;;;;;;;-6.80;96.50;;;;;;6113108;23;20358;-81
2021/12/26 07:38:34;;;;;;;;;;;-6.30;96.50;;;;;;6113857;23;19921;-80
2021/12/26 07:40:59;;;;;;;;;;;-6.80;96.90;;;;;;6114707;23;20268;-80
2021/12/26 07:43:25;;;;;;;;;;;-6.80;96.60;;;;;;6115637;23;20026;-81
2021/12/26 07:45:50;;;;;;;;;;;-6.80;96.90;;;;;;6092835;23;19979;-81
2021/12/26 07:48:16;;;;;;;;;;;-6.80;96.70;;;;;;6089616;23;19949;-80
2021/12/26 07:50:41;;;;;;;;;;;-6.80;96.60;;;;;;6115480;23;19961;-82
2021/12/26 07:53:10;;;;;;;;;;;-6.80;96.50;;;;;;6116336;23;19925;-80
2021/12/26 07:55:36;;;;;;;;;;;-6.80;96.10;;;;;;6115827;23;20004;-80
2021/12/26 07:58:02;;;;;;;;;;;-6.80;96.30;;;;;;6114787;23;20389;-80
2021/12/26 08:00:28;;;;;;;;;;;-6.80;95.80;;;;;;6091696;23;19936;-81
2021/12/26 08:02:54;;;;;;;;;;;-6.80;96.50;;;;;;6116933;23;19917;-80
2021/12/26 08:05:20;;;;;;;;;;;-6.80;96.10;;;;;;6095300;23;19928;-81
2021/12/26 08:07:46;;;;;;;;;;;-6.70;96.20;;;;;;6120257;23;19921;-82
2021/12/26 08:10:11;;;;;;;;;;;-6.70;96.00;;;;;;6117979;23;19976;-81
2021/12/26 08:12:37;;;;;;;;;;;-6.70;95.40;;;;;;6095812;23;19925;-81
2021/12/26 08:15:03;;;;;;;;;;;-6.70;96.30;;;;;;6119778;23;20004;-80
2021/12/26 08:17:29;;;;;;;;;;;-6.70;96.50;;;;;;6115788;23;19924;-80
2021/12/26 08:19:54;;;;;;;;;;;-6.70;96.10;;;;;;6117192;23;19932;-81
2021/12/26 08:22:20;;;;;;;;;;;-6.70;95.60;;;;;;6115320;23;20385;-80
2021/12/26 08:24:45;;;;;;;;;;;-6.60;95.60;;;;;;6116019;23;20474;-81
2021/12/26 08:27:11;;;;;;;;;;;-6.60;95.60;;;;;;6090775;23;19927;-81
2021/12/26 08:29:36;;;;;;;;;;;-6.20;95.50;;;;;;6117178;23;19931;-81
2021/12/26 08:32:02;;;;;;;;;;;-6.90;96.00;;;;;;6118290;23;19924;-81
2021/12/26 08:34:28;;;;;;;;;;;-6.60;95.80;;;;;;6117303;23;20356;-82
2021/12/26 08:37:00;;;;;;;;;;;-6.50;95.90;;;;;;6118832;23;20014;-81
2021/12/26 08:39:27;;;;;;;;;;;-6.50;96.20;;;;;;6119565;23;19928;-82
2021/12/26 08:41:52;;;;;;;;;;;-6.00;96.40;;;;;;6120090;23;19921;-83
2021/12/26 08:44:19;;;;;;;;;;;-6.50;96.60;;;;;;6096068;23;20006;-82
2021/12/26 08:46:45;;;;;;;;;;;-6.50;96.40;;;;;;6120120;23;20227;-82
2021/12/26 08:49:11;;;;;;;;;;;-6.10;96.10;;;;;;6097465;23;19921;-82
2021/12/26 08:51:37;;;;;;;;;;;-6.40;96.70;;;;;;6118069;23;20398;-81
2021/12/26 08:54:02;;;;;;;;;;;-6.40;97.10;;;;;;6120730;23;19956;-82
2021/12/26 08:56:28;;;;;;;;;;;-6.40;96.30;;;;;;6117997;23;20008;-82
2021/12/26 08:58:54;;;;;;;;;;;-6.40;96.70;;;;;;6116775;23;19973;-80
2021/12/26 09:01:19;;;;;;;;;;;-6.20;95.60;;;;;;6118646;23;19956;-80
2021/12/26 09:03:45;;;;;;;;;;;-6.30;96.10;;;;;;6095820;23;19925;-81
2021/12/26 09:06:13;;;;;;;;;;;-6.30;95.40;;;;;;6118036;23;19928;-82
2021/12/26 09:08:39;;;;;;;;;;;-6.20;96.30;;;;;;6095746;23;19925;-81
2021/12/26 09:11:04;;;;;;;;;;;-6.10;95.70;;;;;;6119233;23;20302;-82
2021/12/26 09:13:30;;;;;;;;;;;-5.80;96.00;;;;;;6117959;23;19981;-82
2021/12/26 09:15:59;;;;;;;;;;;-5.30;96.20;;;;;;6119455;23;19928;-81
2021/12/26 09:18:25;;;;;;;;;;;-5.80;95.30;;;;;;6119286;23;19924;-82
2021/12/26 09:20:50;;;;;;;;;;;-6.00;96.60;;;;;;6093215;23;19960;-83
2021/12/26 09:23:16;;;;;;;;;;;-5.60;95.30;;;;;;6119251;23;20000;-81
2021/12/26 09:25:42;;;;;;;;;;;-5.80;95.10;;;;;;6119379;23;19931;-84
2021/12/26 09:28:07;;;;;;;;;;;-5.70;95.00;;;;;;6118520;23;19932;-81
2021/12/26 09:30:33;;;;;;;;;;;-5.10;95.30;;;;;;6094956;23;19921;-83
2021/12/26 09:32:58;;;;;;;;;;;-5.10;94.80;;;;;;6119038;23;19928;-81
2021/12/26 09:35:24;;;;;;;;;;;-5.30;94.40;;;;;;6118941;23;20269;-82
2021/12/26 09:37:50;;;;;;;;;;;-5.00;94.10;;;;;;6118560;23;20031;-82
2021/12/26 09:40:16;;;;;;;;;;;-4.70;93.00;;;;;;6118071;23;19935;-84
2021/12/26 09:42:42;;;;;;;;;;;-4.40;92.70;;;;;;6117887;23;19921;-83
2021/12/26 09:45:10;;;;;;;;;;;-2.20;91.20;;;;;;6095465;23;19963;-87
2021/12/26 09:47:37;;;;;;;;;;;-3.60;88.30;;;;;;6120772;23;20482;-81
2021/12/26 09:50:04;;;;;;;;;;;-3.50;88.20;;;;;;6119572;23;19932;-81
2021/12/26 10:25:11;;;;;;;;;;;3.30;59.90;;;;;;6165193;23;20023;-84
2021/12/26 10:27:38;;;;;;;;;;;3.30;55.20;;;;;;6123297;23;20059;-83
2021/12/26 10:30:05;;;;;;;;;;;4.40;55.70;;;;;;6124364;23;19921;-86
2021/12/26 10:32:32;;;;;;;;;;;4.90;51.00;;;;;;6124203;23;19947;-85
2021/12/26 10:35:02;;;;;;;;;;;4.70;49.40;;;;;;6150674;23;19947;-88
2021/12/26 10:37:36;;;;;;;;;;;5.00;52.30;;;;;;6146015;23;19991;-82
2021/12/26 10:40:18;;;;;;;;;;;4.90;54.40;;;;;;6150086;23;19921;-84
2021/12/26 10:42:45;;;;;;;;;;;4.90;51.30;;;;;;6147940;23;19921;-84
2021/12/26 10:45:12;;;;;;;;;;;5.00;48.80;;;;;;6147185;23;19999;-80
2021/12/26 10:47:43;;;;;;;;;;;4.70;48.00;;;;;;6147755;23;19921;-84
2021/12/26 10:50:13;;;;;;;;;;;4.90;49.20;;;;;;6148182;23;19944;-89
2021/12/26 10:53:11;;;;;;;;;;;4.80;50.00;;;;;;6122723;23;20067;-81
2021/12/26 10:55:38;;;;;;;;;;;3.70;53.10;;;;;;6148173;23;20011;-85
2021/12/26 10:58:05;;;;;;;;;;;3.30;52.60;;;;;;6147036;23;20018;-84
2021/12/26 11:00:31;;;;;;;;;;;2.90;54.60;;;;;;6146421;23;19924;-82
2021/12/26 11:03:08;;;;;;;;;;;3.00;56.40;;;;;;6147827;23;20432;-82
2021/12/26 11:05:43;;;;;;;;;;;2.30;58.20;;;;;;6123958;23;19933;-83
2021/12/26 11:39:55;;;;;;;;;;;-1.50;68.40;;;;;;6165703;23;19936;-77
2021/12/26 11:42:30;;;;;;;;;;;-1.70;68.70;;;;;;6144851;23;19973;-77
2021/12/26 11:45:07;;;;;;;;;;;-1.80;71.10;;;;;;6123198;23;19927;-76
2021/12/26 11:47:58;;;;;;;;;;;-1.50;71.10;;;;;;6121627;23;19921;-79
2021/12/26 11:50:49;;;;;;;;;;;-2.00;71.20;;;;;;6122685;23;19921;-79
2021/12/26 11:53:33;;;;;;;;;;;-2.00;73.20;;;;;;6146684;23;19921;-77
2021/12/26 11:56:21;;;;;;;;;;;-2.10;75.10;;;;;;6146061;23;20339;-78
2021/12/26 11:58:52;;;;;;;;;;;-2.00;76.20;;;;;;6149089;23;19927;-78
2021/12/26 12:01:19;;;;;;;;;;;-2.00;79.10;;;;;;6119128;23;20381;-77
2021/12/26 12:03:45;;;;;;;;;;;-2.00;80.00;;;;;;6146564;23;19921;-80
2021/12/26 12:06:26;;;;;;;;;;;-2.00;78.70;;;;;;6122205;23;19924;-78
2021/12/26 12:08:54;;;;;;;;;;;-1.90;80.00;;;;;;6121609;23;20003;-81
2021/12/26 12:11:19;;;;;;;;;;;-1.90;80.70;;;;;;6121150;23;19996;-79
2021/12/26 12:13:46;;;;;;;;;;;-0.80;83.00;;;;;;6123127;23;20011;-78
2021/12/26 12:16:27;;;;;;;;;;;-1.90;81.50;;;;;;6120114;23;19924;-81
2021/12/26 12:18:54;;;;;;;;;;;-1.90;81.30;;;;;;6121986;23;20300;-78
2021/12/26 12:21:31;;;;;;;;;;;-1.90;83.00;;;;;;6121917;23;20178;-78
2021/12/26 12:24:10;;;;;;;;;;;-1.90;82.80;;;;;;6121976;23;19920;-78
2021/12/26 15:32:36;;;;;;;;;;;-2.10;91.80;;;;;;6163027;23;19931;-83
2021/12/26 15:44:22;;;;;;;;;;;-2.20;92.80;;;;;;6151573;23;21174;-83
2021/12/26 15:53:37;;;;;;;;;;;-3.60;93.20;;;;;;6152526;23;19984;-82
2021/12/26 16:04:50;;;;;;;;;;;-2.40;94.40;;;;;;6147117;23;19975;-82
2021/12/26 17:02:18;;;;;;;;;;;-3.10;98.60;;;;;;6146591;23;20349;-82
2021/12/26 17:28:49;;;;;;;;;;;-3.40;99.90;;;;;;6150328;23;19920;-84
2021/12/26 17:33:50;;;;;;;;;;;-3.50;99.90;;;;;;6145330;23;19921;-84
2021/12/26 17:36:18;;;;;;;;;;;-3.50;99.90;;;;;;6130775;23;19920;-85
2021/12/26 17:38:46;;;;;;;;;;;-3.50;99.90;;;;;;6161658;23;19927;-84
2021/12/26 17:41:12;;;;;;;;;;;-2.20;99.90;;;;;;6160834;23;19920;-82
2021/12/26 18:04:38;;;;;;;;;;;-2.80;99.90;;;;;;6154118;23;19988;-85
2021/12/26 18:56:18;;;;;;;;;;;-3.30;99.90;;;;;;6164441;23;19927;-82
2021/12/26 18:58:44;;;;;;;;;;;-3.10;99.90;;;;;;6153638;23;20258;-86
2021/12/26 19:08:15;;;;;;;;;;;-4.50;99.90;;;;;;6147014;23;20023;-85
2021/12/26 19:40:32;;;;;;;;;;;-2.90;99.90;;;;;;6151412;23;19925;-84
2021/12/26 20:01:52;;;;;;;;;;;-2.60;99.90;;;;;;6150869;23;19954;-83
2021/12/26 20:07:41;;;;;;;;;;;-2.10;99.90;;;;;;6160595;23;19928;-86
2021/12/26 20:35:49;;;;;;;;;;;-2.30;99.90;;;;;;6149996;23;19930;-84
2021/12/26 20:38:37;;;;;;;;;;;-2.20;99.90;;;;;;6154265;23;19956;-83
2021/12/26 20:50:28;;;;;;;;;;;-2.20;99.90;;;;;;6152345;23;19918;-84
2021/12/26 21:34:03;;;;;;;;;;;-1.70;99.90;;;;;;6088113;23;19948;-77
2021/12/26 23:46:33;;;;;;;;;;;-1.50;99.90;;;;;;6161198;23;19943;-83
2021/12/26 23:55:47;;;;;;;;;;;-1.50;99.90;;;;;;6151160;23;19909;-85
2021/12/26 23:58:12;;;;;;;;;;;-1.50;99.90;;;;;;6119286;23;19972;-84
